createdAt,value
2023-06-25T00:00:11.529Z,20.90
2023-06-25T00:02:47.999Z,20.90
2023-06-25T00:05:15.506Z,20.90
2023-06-25T00:07:42.620Z,20.90
2023-06-25T00:10:09.996Z,20.90
2023-06-25T00:12:37.108Z,20.80
2023-06-25T00:15:06.513Z,20.80
2023-06-25T00:17:33.999Z,20.80
2023-06-25T00:20:01.107Z,20.80
2023-06-25T00:22:28.893Z,20.80
2023-06-25T00:24:56.124Z,20.80
2023-06-25T00:27:23.215Z,20.70
2023-06-25T00:29:50.693Z,20.80
2023-06-25T00:32:19.280Z,20.80
2023-06-25T00:34:46.321Z,20.80
2023-06-25T00:37:19.263Z,20.80
2023-06-25T00:39:48.492Z,20.80
2023-06-25T00:42:17.350Z,20.80
2023-06-25T00:44:44.796Z,20.70
2023-06-25T00:47:14.747Z,20.70
2023-06-25T00:49:46.109Z,20.70
2023-06-25T00:52:14.776Z,20.70
2023-06-25T00:54:46.201Z,20.80
2023-06-25T00:57:16.973Z,20.80
2023-06-25T00:59:46.387Z,20.80
2023-06-25T01:02:23.372Z,20.80
2023-06-25T01:05:15.985Z,20.80
2023-06-25T01:07:45.836Z,20.80
2023-06-25T01:10:13.995Z,20.80
2023-06-25T01:12:41.844Z,20.80
2023-06-25T01:15:10.843Z,20.80
2023-06-25T01:17:40.887Z,20.70
2023-06-25T01:20:16.528Z,20.70
2023-06-25T01:22:43.845Z,20.70
2023-06-25T01:25:11.327Z,20.70
2023-06-25T01:27:38.846Z,20.70
2023-06-25T01:30:10.052Z,20.70
2023-06-25T01:32:37.452Z,20.70
2023-06-25T01:35:04.950Z,20.70
2023-06-25T01:37:32.251Z,20.70
2023-06-25T01:40:01.082Z,20.80
2023-06-25T01:42:28.403Z,20.80
2023-06-25T01:44:55.492Z,20.80
2023-06-25T01:47:22.605Z,20.70
2023-06-25T01:49:50.029Z,20.80
2023-06-25T01:52:17.089Z,20.80
2023-06-25T01:54:44.419Z,20.70
2023-06-25T01:57:11.453Z,20.70
2023-06-25T01:59:38.613Z,20.70
2023-06-25T02:02:05.997Z,20.70
2023-06-25T02:04:33.433Z,20.80
2023-06-25T02:07:00.728Z,20.80
2023-06-25T02:09:28.908Z,20.80
2023-06-25T02:11:55.918Z,20.80
2023-06-25T02:14:23.175Z,20.80
2023-06-25T02:16:50.334Z,20.80
2023-06-25T02:19:17.775Z,20.70
2023-06-25T02:21:45.028Z,20.70
2023-06-25T02:24:12.058Z,20.70
2023-06-25T02:26:41.257Z,20.70
2023-06-25T02:29:09.753Z,20.70
2023-06-25T02:31:36.959Z,20.70
2023-06-25T02:34:04.021Z,20.70
2023-06-25T02:36:31.840Z,20.70
2023-06-25T02:38:59.052Z,20.70
2023-06-25T02:41:26.161Z,20.70
2023-06-25T02:43:53.285Z,20.70
2023-06-25T02:46:20.668Z,20.80
2023-06-25T02:48:48.521Z,20.80
2023-06-25T02:51:16.227Z,20.70
2023-06-25T02:53:43.706Z,20.70
2023-06-25T02:56:10.952Z,20.70
2023-06-25T02:58:38.083Z,20.70
2023-06-25T03:01:05.194Z,20.80
2023-06-25T03:03:32.490Z,20.80
2023-06-25T03:05:59.641Z,20.70
2023-06-25T03:08:27.072Z,20.70
2023-06-25T03:10:54.151Z,20.70
2023-06-25T03:13:21.451Z,20.70
2023-06-25T03:15:48.575Z,20.70
2023-06-25T03:18:15.662Z,20.70
2023-06-25T03:20:42.698Z,20.70
2023-06-25T03:23:09.807Z,20.70
2023-06-25T03:25:37.320Z,20.70
2023-06-25T03:28:17.185Z,20.70
2023-06-25T03:30:47.646Z,20.70
2023-06-25T03:33:15.838Z,20.70
2023-06-25T03:35:43.065Z,20.70
2023-06-25T03:38:12.165Z,20.80
2023-06-25T03:40:40.379Z,20.80
2023-06-25T03:43:07.419Z,20.70
2023-06-25T03:45:36.365Z,20.80
2023-06-25T03:48:03.735Z,20.80
2023-06-25T03:50:31.921Z,20.70
2023-06-25T03:52:59.198Z,20.70
2023-06-25T03:55:26.373Z,20.70
2023-06-25T03:57:56.460Z,20.70
2023-06-25T04:00:23.598Z,20.70
2023-06-25T04:02:50.785Z,20.80
2023-06-25T04:05:18.591Z,20.80
2023-06-25T04:07:46.929Z,20.80
2023-06-25T04:10:16.657Z,20.80
2023-06-25T04:12:44.301Z,20.80
2023-06-25T04:15:12.112Z,20.80
2023-06-25T04:17:40.875Z,20.70
2023-06-25T04:20:09.502Z,20.80
2023-06-25T04:22:37.121Z,20.70
2023-06-25T04:25:04.539Z,20.60
2023-06-25T04:27:31.756Z,20.60
2023-06-25T04:29:59.079Z,20.50
2023-06-25T04:32:27.625Z,20.60
2023-06-25T04:34:54.859Z,20.70
2023-06-25T04:37:22.070Z,20.70
2023-06-25T04:39:49.760Z,20.60
2023-06-25T04:42:19.659Z,20.70
2023-06-25T04:44:46.867Z,20.70
2023-06-25T04:47:14.269Z,20.70
2023-06-25T04:49:41.530Z,20.70
2023-06-25T04:52:08.718Z,20.80
2023-06-25T04:54:35.891Z,20.80
2023-06-25T04:57:03.214Z,20.70
2023-06-25T04:59:30.316Z,20.70
2023-06-25T05:02:00.570Z,20.80
2023-06-25T05:04:27.705Z,20.70
2023-06-25T05:06:56.472Z,20.70
2023-06-25T05:09:23.619Z,20.70
2023-06-25T05:11:50.731Z,20.80
2023-06-25T05:14:18.299Z,20.70
2023-06-25T05:16:45.348Z,20.70
2023-06-25T05:19:14.465Z,20.70
2023-06-25T05:21:42.089Z,20.70
2023-06-25T05:24:09.348Z,20.80
2023-06-25T05:26:38.922Z,20.80
2023-06-25T05:29:07.179Z,20.80
2023-06-25T05:31:34.277Z,20.80
2023-06-25T05:34:01.381Z,20.80
2023-06-25T05:36:30.185Z,20.70
2023-06-25T05:38:57.339Z,20.80
2023-06-25T05:41:24.434Z,20.80
2023-06-25T05:43:54.593Z,20.90
2023-06-25T05:46:21.733Z,20.70
2023-06-25T05:48:49.048Z,20.60
2023-06-25T05:51:16.373Z,20.70
2023-06-25T05:53:44.878Z,20.70
2023-06-25T05:56:16.455Z,20.90
2023-06-25T05:58:44.409Z,20.90
2023-06-25T06:01:11.653Z,20.90
2023-06-25T06:03:38.907Z,20.90
2023-06-25T06:06:06.081Z,20.90
2023-06-25T06:08:33.337Z,21.00
2023-06-25T06:11:00.472Z,20.90
2023-06-25T06:13:27.537Z,21.10
2023-06-25T06:15:54.919Z,21.10
2023-06-25T06:18:22.378Z,21.10
2023-06-25T06:20:49.518Z,21.10
2023-06-25T06:23:16.689Z,21.00
2023-06-25T06:25:43.988Z,21.10
2023-06-25T06:28:11.112Z,21.10
2023-06-25T06:30:38.251Z,21.00
2023-06-25T06:33:05.460Z,21.00
2023-06-25T06:35:32.560Z,21.00
2023-06-25T06:37:59.722Z,21.00
2023-06-25T06:40:26.733Z,21.00
2023-06-25T06:42:53.818Z,21.00
2023-06-25T06:45:20.962Z,21.00
2023-06-25T06:47:48.093Z,21.00
2023-06-25T06:50:15.224Z,21.00
2023-06-25T06:52:44.669Z,20.90
2023-06-25T06:55:12.151Z,20.80
2023-06-25T06:57:39.412Z,20.90
2023-06-25T07:00:07.345Z,20.80
2023-06-25T07:02:34.684Z,20.90
2023-06-25T07:05:02.157Z,21.00
2023-06-25T07:07:29.437Z,21.00
2023-06-25T07:09:56.651Z,21.00
2023-06-25T07:12:23.874Z,21.00
2023-06-25T07:14:50.990Z,21.00
2023-06-25T07:17:18.168Z,21.00
2023-06-25T07:19:45.348Z,21.00
2023-06-25T07:22:12.548Z,21.00
2023-06-25T07:24:39.733Z,21.10
2023-06-25T07:27:07.144Z,21.50
2023-06-25T07:29:35.790Z,21.30
2023-06-25T07:32:03.986Z,21.30
2023-06-25T07:34:32.083Z,21.30
2023-06-25T07:36:59.152Z,21.30
2023-06-25T07:39:30.505Z,21.40
2023-06-25T07:41:58.784Z,21.40
2023-06-25T07:44:46.065Z,21.50
2023-06-25T07:47:13.547Z,21.60
2023-06-25T07:49:40.668Z,21.70
2023-06-25T07:52:08.183Z,21.80
2023-06-25T07:54:35.302Z,21.90
2023-06-25T07:57:02.436Z,22.20
2023-06-25T07:59:39.001Z,22.20
2023-06-25T08:02:14.180Z,22.30
2023-06-25T08:04:41.832Z,22.40
2023-06-25T08:07:10.267Z,22.20
2023-06-25T08:09:37.657Z,22.20
2023-06-25T08:12:05.274Z,22.20
2023-06-25T08:14:32.417Z,21.90
2023-06-25T08:16:59.479Z,22.10
2023-06-25T08:19:26.583Z,22.10
2023-06-25T08:21:53.636Z,22.10
2023-06-25T08:24:20.824Z,22.10
2023-06-25T08:26:47.886Z,22.00
2023-06-25T08:29:15.158Z,22.10
2023-06-25T08:31:42.274Z,22.20
2023-06-25T08:34:09.397Z,22.40
2023-06-25T08:36:37.623Z,22.30
2023-06-25T08:39:04.613Z,22.30
2023-06-25T08:41:31.823Z,22.40
2023-06-25T08:43:59.146Z,22.10
2023-06-25T08:46:27.078Z,22.20
2023-06-25T08:48:55.930Z,22.30
2023-06-25T08:51:25.376Z,22.30
2023-06-25T08:53:56.373Z,22.40
2023-06-25T08:56:23.528Z,22.50
2023-06-25T08:58:51.320Z,22.60
2023-06-25T09:01:19.708Z,22.80
2023-06-25T09:03:46.823Z,22.80
2023-06-25T09:06:17.664Z,23.00
2023-06-25T09:08:45.264Z,23.10
2023-06-25T09:11:13.176Z,23.00
2023-06-25T09:13:41.153Z,23.10
2023-06-25T09:16:10.661Z,23.40
2023-06-25T09:18:38.523Z,23.60
2023-06-25T09:21:07.987Z,23.50
2023-06-25T09:23:37.220Z,23.50
2023-06-25T09:26:13.973Z,23.60
2023-06-25T09:29:00.865Z,23.70
2023-06-25T09:31:28.355Z,23.50
2023-06-25T09:33:55.737Z,23.30
2023-06-25T09:36:37.503Z,22.90
2023-06-25T09:39:08.713Z,22.80
2023-06-25T09:41:37.446Z,22.80
2023-06-25T09:44:06.066Z,22.90
2023-06-25T09:46:41.414Z,22.90
2023-06-25T09:49:08.922Z,23.00
2023-06-25T09:51:50.108Z,23.20
2023-06-25T09:54:22.469Z,23.60
2023-06-25T09:56:50.802Z,23.80
2023-06-25T09:59:18.482Z,24.20
2023-06-25T10:01:46.022Z,24.20
2023-06-25T10:04:13.964Z,24.20
2023-06-25T10:06:41.696Z,24.20
2023-06-25T10:09:09.091Z,24.10
2023-06-25T10:11:36.809Z,24.00
2023-06-25T10:14:06.059Z,24.00
2023-06-25T10:16:39.067Z,24.00
2023-06-25T10:19:07.864Z,23.90
2023-06-25T10:21:35.179Z,23.70
2023-06-25T10:24:04.619Z,23.80
2023-06-25T10:26:36.358Z,23.80
2023-06-25T10:29:08.215Z,24.00
2023-06-25T10:31:39.796Z,23.90
2023-06-25T10:34:08.816Z,23.80
2023-06-25T10:36:36.278Z,24.00
2023-06-25T10:39:04.984Z,24.10
2023-06-25T10:41:33.082Z,24.00
2023-06-25T10:44:00.281Z,24.10
2023-06-25T10:46:34.470Z,24.20
2023-06-25T10:49:04.641Z,24.10
2023-06-25T10:51:34.094Z,24.30
2023-06-25T10:54:01.186Z,24.30
2023-06-25T10:56:28.309Z,24.40
2023-06-25T10:58:59.436Z,24.60
2023-06-25T11:01:35.171Z,24.70
2023-06-25T11:04:02.367Z,24.60
2023-06-25T11:06:37.424Z,24.60
2023-06-25T11:09:04.513Z,24.30
2023-06-25T11:11:31.723Z,24.40
2023-06-25T11:13:58.754Z,24.50
2023-06-25T11:16:25.765Z,24.70
2023-06-25T11:18:52.943Z,24.90
2023-06-25T11:21:20.068Z,24.90
2023-06-25T11:23:47.220Z,25.00
2023-06-25T11:26:18.661Z,25.00
2023-06-25T11:28:49.752Z,24.90
2023-06-25T11:31:16.978Z,24.90
2023-06-25T11:33:54.097Z,24.80
2023-06-25T11:36:24.900Z,24.80
2023-06-25T11:38:51.965Z,24.70
2023-06-25T11:41:28.073Z,24.60
2023-06-25T11:43:55.125Z,24.70
2023-06-25T11:46:22.272Z,24.60
2023-06-25T11:48:49.897Z,24.70
2023-06-25T11:51:16.994Z,24.80
2023-06-25T11:53:44.115Z,24.80
2023-06-25T11:56:11.141Z,24.70
2023-06-25T11:58:38.166Z,24.70
2023-06-25T12:01:05.185Z,24.80
2023-06-25T12:03:32.535Z,24.90
2023-06-25T12:06:00.125Z,25.00
2023-06-25T12:08:27.262Z,25.00
2023-06-25T12:10:54.340Z,25.20
2023-06-25T12:13:21.502Z,25.20
2023-06-25T12:15:48.767Z,25.00
2023-06-25T12:18:15.992Z,24.90
2023-06-25T12:20:43.032Z,24.80
2023-06-25T12:23:10.100Z,24.80
2023-06-25T12:25:37.799Z,24.70
2023-06-25T12:28:05.340Z,24.80
2023-06-25T12:30:32.467Z,24.80
2023-06-25T12:32:59.682Z,24.80
2023-06-25T12:35:27.096Z,24.80
2023-06-25T12:37:54.366Z,24.80
2023-06-25T12:40:21.531Z,24.80
2023-06-25T12:42:48.597Z,24.90
2023-06-25T12:45:15.765Z,25.20
2023-06-25T12:47:42.879Z,25.20
2023-06-25T12:50:12.428Z,25.30
2023-06-25T12:52:39.966Z,25.30
2023-06-25T12:55:09.725Z,25.30
2023-06-25T12:57:37.545Z,25.50
2023-06-25T13:00:14.692Z,25.60
2023-06-25T13:02:44.983Z,25.60
2023-06-25T13:05:12.544Z,25.60
2023-06-25T13:07:39.723Z,25.80
2023-06-25T13:10:07.437Z,25.90
2023-06-25T13:12:34.613Z,26.00
2023-06-25T13:15:01.715Z,25.60
2023-06-25T13:17:28.869Z,25.70
2023-06-25T13:19:55.936Z,25.80
2023-06-25T13:22:23.433Z,25.80
2023-06-25T13:24:51.017Z,25.50
2023-06-25T13:27:18.029Z,25.70
2023-06-25T13:29:45.067Z,25.90
2023-06-25T13:32:12.337Z,25.90
2023-06-25T13:34:39.351Z,25.70
2023-06-25T13:37:06.670Z,25.80
2023-06-25T13:39:33.861Z,25.90
2023-06-25T13:42:00.892Z,25.90
2023-06-25T13:44:27.873Z,25.60
2023-06-25T13:46:55.067Z,25.40
2023-06-25T13:49:22.491Z,25.10
2023-06-25T13:51:49.744Z,25.40
2023-06-25T13:54:16.810Z,25.30
2023-06-25T13:56:45.806Z,25.20
2023-06-25T13:59:13.154Z,25.30
2023-06-25T14:01:42.841Z,25.50
2023-06-25T14:04:09.967Z,25.60
2023-06-25T14:06:37.082Z,25.70
2023-06-25T14:09:04.899Z,25.80
2023-06-25T14:11:32.126Z,25.90
2023-06-25T14:13:59.292Z,26.00
2023-06-25T14:16:33.652Z,25.90
2023-06-25T14:19:01.305Z,26.00
2023-06-25T14:21:29.225Z,26.00
2023-06-25T14:23:56.553Z,26.00
2023-06-25T14:26:23.584Z,26.00
2023-06-25T14:29:06.205Z,26.10
2023-06-25T14:31:37.978Z,26.10
2023-06-25T14:34:05.214Z,26.10
2023-06-25T14:36:32.487Z,26.10
2023-06-25T14:38:59.589Z,26.20
2023-06-25T14:41:28.125Z,26.10
2023-06-25T14:43:55.229Z,26.10
2023-06-25T14:46:22.324Z,26.20
2023-06-25T14:48:49.505Z,26.20
2023-06-25T14:51:16.640Z,26.10
2023-06-25T14:53:43.705Z,26.20
2023-06-25T14:56:10.753Z,26.20
2023-06-25T14:58:37.824Z,26.20
2023-06-25T15:01:04.958Z,26.30
2023-06-25T15:03:32.248Z,26.30
2023-06-25T15:06:09.190Z,26.10
2023-06-25T15:08:39.004Z,25.80
2023-06-25T15:11:06.049Z,25.80
2023-06-25T15:13:33.326Z,25.80
2023-06-25T15:16:00.629Z,25.70
2023-06-25T15:18:27.673Z,25.80
2023-06-25T15:20:54.804Z,25.80
2023-06-25T15:23:22.157Z,25.70
2023-06-25T15:25:49.642Z,26.00
2023-06-25T15:28:16.939Z,26.00
2023-06-25T15:30:44.372Z,25.90
2023-06-25T15:33:11.679Z,26.00
2023-06-25T15:35:39.153Z,25.80
2023-06-25T15:38:12.197Z,25.80
2023-06-25T15:40:40.058Z,25.80
2023-06-25T15:43:07.772Z,25.80
2023-06-25T15:45:35.368Z,25.90
2023-06-25T15:48:02.800Z,26.00
2023-06-25T15:50:29.928Z,26.00
2023-06-25T15:52:57.378Z,26.00
2023-06-25T15:55:25.528Z,26.00
2023-06-25T15:57:53.147Z,26.00
2023-06-25T16:00:20.616Z,25.90
2023-06-25T16:02:49.034Z,25.80
2023-06-25T16:05:16.341Z,25.80
2023-06-25T16:07:43.691Z,25.70
2023-06-25T16:10:10.772Z,25.80
2023-06-25T16:12:39.275Z,25.80
2023-06-25T16:15:07.116Z,25.80
2023-06-25T16:17:34.303Z,25.80
2023-06-25T16:20:11.778Z,25.80
2023-06-25T16:22:39.912Z,25.80
2023-06-25T16:25:07.446Z,25.80
2023-06-25T16:27:35.008Z,25.80
2023-06-25T16:30:05.668Z,25.80
2023-06-25T16:32:34.132Z,25.70
2023-06-25T16:35:01.520Z,25.70
2023-06-25T16:37:28.716Z,25.60
2023-06-25T16:39:55.933Z,25.60
2023-06-25T16:42:24.710Z,25.70
2023-06-25T16:44:51.981Z,25.70
2023-06-25T16:47:19.058Z,25.70
2023-06-25T16:49:46.469Z,25.70
2023-06-25T16:52:13.688Z,25.80
2023-06-25T16:54:40.816Z,25.70
2023-06-25T16:57:08.036Z,25.70
2023-06-25T16:59:35.206Z,25.40
2023-06-25T17:02:05.991Z,25.30
2023-06-25T17:04:36.003Z,25.10
2023-06-25T17:07:07.493Z,25.00
2023-06-25T17:09:38.098Z,24.90
2023-06-25T17:12:06.245Z,24.80
2023-06-25T17:14:33.423Z,24.80
2023-06-25T17:17:00.666Z,24.80
2023-06-25T17:19:27.802Z,24.90
2023-06-25T17:21:55.068Z,24.90
2023-06-25T17:24:22.248Z,24.90
2023-06-25T17:26:49.502Z,24.90
2023-06-25T17:29:16.585Z,25.00
2023-06-25T17:31:43.672Z,24.90
2023-06-25T17:34:10.762Z,24.90
2023-06-25T17:36:38.080Z,24.80
2023-06-25T17:39:05.126Z,24.80
2023-06-25T17:41:32.229Z,24.70
2023-06-25T17:43:59.441Z,24.70
2023-06-25T17:46:27.056Z,24.60
2023-06-25T17:48:54.447Z,24.60
2023-06-25T17:51:21.563Z,24.60
2023-06-25T17:53:49.129Z,24.50
2023-06-25T17:56:16.891Z,24.50
2023-06-25T17:58:44.539Z,24.40
2023-06-25T18:01:12.220Z,24.30
2023-06-25T18:03:39.887Z,24.30
2023-06-25T18:06:07.258Z,24.30
2023-06-25T18:08:34.366Z,24.20
2023-06-25T18:11:01.514Z,24.20
2023-06-25T18:13:29.258Z,24.20
2023-06-25T18:15:56.488Z,24.10
2023-06-25T18:18:25.475Z,24.10
2023-06-25T18:20:53.607Z,24.00
2023-06-25T18:23:20.793Z,23.90
2023-06-25T18:25:48.005Z,23.90
2023-06-25T18:28:15.199Z,23.80
2023-06-25T18:30:43.015Z,23.80
2023-06-25T18:33:13.308Z,23.80
2023-06-25T18:35:41.375Z,23.80
2023-06-25T18:38:08.631Z,23.70
2023-06-25T18:40:36.169Z,23.70
2023-06-25T18:43:04.029Z,23.60
2023-06-25T18:45:31.782Z,23.50
2023-06-25T18:47:59.361Z,23.50
2023-06-25T18:50:27.979Z,23.40
2023-06-25T18:52:55.615Z,23.40
2023-06-25T18:55:24.590Z,23.40
2023-06-25T18:57:52.972Z,23.30
2023-06-25T19:00:21.257Z,23.30
2023-06-25T19:02:49.137Z,23.30
2023-06-25T19:05:16.358Z,23.20
2023-06-25T19:07:43.584Z,23.20
2023-06-25T19:10:10.870Z,23.20
2023-06-25T19:12:38.022Z,23.10
2023-06-25T19:15:05.713Z,23.10
2023-06-25T19:17:33.356Z,23.00
2023-06-25T19:20:00.545Z,23.00
2023-06-25T19:22:27.808Z,22.90
2023-06-25T19:24:55.401Z,22.90
2023-06-25T19:27:23.228Z,22.80
2023-06-25T19:29:50.598Z,22.80
2023-06-25T19:32:18.164Z,22.80
2023-06-25T19:34:45.848Z,22.70
2023-06-25T19:37:13.457Z,22.70
2023-06-25T19:39:40.938Z,22.70
2023-06-25T19:42:09.111Z,22.60
2023-06-25T19:44:37.084Z,22.50
2023-06-25T19:47:04.856Z,22.50
2023-06-25T19:49:32.549Z,22.50
2023-06-25T19:51:59.834Z,22.40
2023-06-25T19:54:27.812Z,22.40
2023-06-25T19:56:54.987Z,22.40
2023-06-25T19:59:22.809Z,22.40
2023-06-25T20:01:50.496Z,22.30
2023-06-25T20:04:19.238Z,22.20
2023-06-25T20:06:46.274Z,22.30
2023-06-25T20:09:13.543Z,22.20
2023-06-25T20:11:40.920Z,22.20
2023-06-25T20:14:08.507Z,22.20
2023-06-25T20:16:38.780Z,22.10
2023-06-25T20:19:06.182Z,22.10
2023-06-25T20:21:33.246Z,22.00
2023-06-25T20:24:00.317Z,22.00
2023-06-25T20:26:28.645Z,22.00
2023-06-25T20:28:56.355Z,22.00
2023-06-25T20:31:23.793Z,21.90
2023-06-25T20:33:51.011Z,21.90
2023-06-25T20:36:18.584Z,21.80
2023-06-25T20:38:45.836Z,21.80
2023-06-25T20:41:31.895Z,21.80
2023-06-25T20:44:00.839Z,21.80
2023-06-25T20:46:28.567Z,21.80
2023-06-25T20:48:56.159Z,21.70
2023-06-25T20:51:24.323Z,21.70
2023-06-25T20:53:51.590Z,21.70
2023-06-25T20:56:18.709Z,21.60
2023-06-25T20:58:45.828Z,21.60
2023-06-25T21:01:13.103Z,21.60
2023-06-25T21:03:40.592Z,21.60
2023-06-25T21:06:07.949Z,21.60
2023-06-25T21:08:34.971Z,21.50
2023-06-25T21:11:02.036Z,21.50
2023-06-25T21:13:29.117Z,21.50
2023-06-25T21:15:56.242Z,21.40
2023-06-25T21:18:23.570Z,21.40
2023-06-25T21:20:51.650Z,21.40
2023-06-25T21:23:18.861Z,21.40
2023-06-25T21:25:45.935Z,21.30
2023-06-25T21:28:13.045Z,21.30
2023-06-25T21:30:42.563Z,21.20
2023-06-25T21:33:09.834Z,21.20
2023-06-25T21:35:37.751Z,21.20
2023-06-25T21:38:04.867Z,21.20
2023-06-25T21:40:32.078Z,21.20
2023-06-25T21:42:59.132Z,21.10
2023-06-25T21:45:28.085Z,21.10
2023-06-25T21:47:55.243Z,21.10
2023-06-25T21:50:22.467Z,21.00
2023-06-25T21:52:49.507Z,21.00
2023-06-25T21:55:16.661Z,21.00
2023-06-25T21:57:44.055Z,21.00
2023-06-25T22:00:12.707Z,21.00
2023-06-25T22:02:45.603Z,20.90
2023-06-25T22:05:12.752Z,20.90
2023-06-25T22:07:39.962Z,20.90
2023-06-25T22:10:07.329Z,20.90
2023-06-25T22:12:34.374Z,20.80
2023-06-25T22:15:01.492Z,20.70
2023-06-25T22:17:28.577Z,20.70
2023-06-25T22:19:55.794Z,20.70
2023-06-25T22:22:22.882Z,20.70
2023-06-25T22:24:50.138Z,20.60
2023-06-25T22:27:17.221Z,20.70
2023-06-25T22:29:45.220Z,20.60
2023-06-25T22:32:13.857Z,20.60
2023-06-25T22:34:41.044Z,20.60
2023-06-25T22:37:08.206Z,20.60
2023-06-25T22:39:35.345Z,20.50
2023-06-25T22:42:02.537Z,20.50
2023-06-25T22:44:29.628Z,20.50
2023-06-25T22:46:56.670Z,20.50
2023-06-25T22:49:32.954Z,20.50
2023-06-25T22:52:01.875Z,20.40
2023-06-25T22:54:28.995Z,20.40
2023-06-25T22:56:56.064Z,20.40
2023-06-25T22:59:23.113Z,20.40
2023-06-25T23:01:50.300Z,20.40
2023-06-25T23:04:18.102Z,20.30
2023-06-25T23:06:45.323Z,20.30
2023-06-25T23:09:16.153Z,20.30
2023-06-25T23:11:43.478Z,20.20
2023-06-25T23:14:10.719Z,20.20
2023-06-25T23:16:38.005Z,20.20
2023-06-25T23:19:05.954Z,20.10
2023-06-25T23:21:33.350Z,20.10
2023-06-25T23:24:00.692Z,20.10
2023-06-25T23:26:27.771Z,20.00
2023-06-25T23:28:55.805Z,20.00
2023-06-25T23:31:25.851Z,20.00
2023-06-25T23:33:53.430Z,20.00
2023-06-25T23:36:25.653Z,20.00
2023-06-25T23:38:52.950Z,19.90
2023-06-25T23:41:20.075Z,19.90
2023-06-25T23:43:47.461Z,19.80
2023-06-25T23:46:14.650Z,19.90
2023-06-25T23:48:41.776Z,19.90
2023-06-25T23:51:08.971Z,19.90
2023-06-25T23:53:36.158Z,19.80
2023-06-25T23:56:03.228Z,19.80
2023-06-25T23:58:30.391Z,19.80
